La Estrella, Argentina
Current Conditions -  °F | °C
As of 2:00 PM on Thursday 30 Oct 2014 (Local Time) from SASJ Reporting Station
Broken Clouds Broken Clouds  
Wind Chill: 27°   Ceiling: 10000
Heat Index: 27°   Visibility: 6mi
Dew Point: 16°   Wind: 3mph
Humidity: 51%   Direction: 90°E
Pressure: 29.8"   Gusts: NA
Location:  23.82°S, 64.08°W
Report Text: SASJ 301700Z 09003KT 050V200 9999 SCT035BKN100 27/16 Q1009
Loading
Personal Weather Stations






























Interactive Weather Map
Tropical Storm Tracking
New forecast layout! Learn more

10-Day Weather Forecast

Advertisements
Track Severe Weather on mobile